Time;durP1;ratioP1;P1;durP2;ratioP2;P2;SDS_P1;SDS_P2;PMS_P1;PMS_P2;Temp;Humidity;BMP_temperature;BMP_pressure;BME280_temperature;BME280_humidity;BME280_pressure;Samples;Min_cycle;Max_cycle;Signal;HPM_P1;HPM_P2
2023/05/15 00:01:01;;;;;;;20.70;18.50;;;;;;;;;;5014239;28;20429;-89
2023/05/15 00:03:27;;;;;;;20.05;17.95;;;;;;;;;;5017010;28;20417;-90
2023/05/15 00:05:56;;;;;;;21.08;19.00;;;;;;;;;;5016924;28;20406;-91
2023/05/15 00:08:22;;;;;;;21.13;19.00;;;;;;;;;;5016536;28;20413;-90
2023/05/15 00:10:48;;;;;;;20.95;18.63;;;;;;;;;;5014794;28;20422;-91
2023/05/15 00:13:17;;;;;;;20.92;18.85;;;;;;;;;;5016691;28;20459;-91
2023/05/15 00:15:44;;;;;;;20.90;18.70;;;;;;;;;;5016232;28;20435;-90
2023/05/15 00:18:10;;;;;;;22.55;18.60;;;;;;;;;;5016277;28;20463;-91
2023/05/15 00:20:38;;;;;;;21.33;19.17;;;;;;;;;;5014093;28;20448;-90
2023/05/15 00:23:04;;;;;;;21.58;19.27;;;;;;;;;;5015192;28;20420;-91
2023/05/15 00:25:38;;;;;;;20.17;17.70;;;;;;;;;;5032702;28;20413;-90
2023/05/15 00:28:06;;;;;;;20.27;18.23;;;;;;;;;;5017664;28;20426;-91
2023/05/15 00:30:35;;;;;;;20.30;18.10;;;;;;;;;;5009040;28;20508;-90
2023/05/15 00:33:02;;;;;;;19.65;17.85;;;;;;;;;;5016184;28;20476;-90
2023/05/15 00:35:40;;;;;;;19.08;17.08;;;;;;;;;;4993437;28;20518;-90
2023/05/15 00:38:09;;;;;;;19.33;17.37;;;;;;;;;;4996390;28;20403;-90
2023/05/15 00:40:39;;;;;;;18.80;16.67;;;;;;;;;;4995825;28;20485;-90
2023/05/15 00:43:23;;;;;;;19.45;17.55;;;;;;;;;;4996531;28;20415;-91
2023/05/15 00:45:52;;;;;;;18.27;16.58;;;;;;;;;;4996607;28;20421;-90
2023/05/15 00:48:27;;;;;;;19.25;17.17;;;;;;;;;;4995265;28;20510;-90
2023/05/15 00:50:57;;;;;;;18.48;16.70;;;;;;;;;;4996224;28;20454;-91
2023/05/15 00:53:33;;;;;;;18.98;17.10;;;;;;;;;;4995982;28;20506;-90
2023/05/15 00:56:09;;;;;;;18.20;16.27;;;;;;;;;;4996280;28;20403;-91
2023/05/15 00:58:47;;;;;;;18.70;16.75;;;;;;;;;;4978662;28;20423;-89
2023/05/15 01:01:17;;;;;;;17.98;16.27;;;;;;;;;;4976631;28;20404;-92
2023/05/15 01:03:43;;;;;;;19.70;17.25;;;;;;;;;;4976608;28;20484;-89
2023/05/15 01:06:18;;;;;;;20.00;16.63;;;;;;;;;;4987871;28;20419;-91
2023/05/15 01:09:05;;;;;;;17.77;15.90;;;;;;;;;;4995559;28;20427;-90
2023/05/15 01:11:38;;;;;;;18.17;16.33;;;;;;;;;;4996138;28;20421;-89
2023/05/15 01:14:08;;;;;;;18.20;16.42;;;;;;;;;;4995926;28;20459;-90
2023/05/15 01:16:52;;;;;;;17.75;16.02;;;;;;;;;;4995810;28;20469;-91
2023/05/15 01:19:24;;;;;;;17.52;15.82;;;;;;;;;;4976376;28;20492;-90
2023/05/15 01:21:59;;;;;;;18.30;16.43;;;;;;;;;;4976448;28;20436;-89
2023/05/15 01:24:36;;;;;;;17.30;15.57;;;;;;;;;;4976367;28;20416;-89
2023/05/15 01:27:12;;;;;;;17.50;15.70;;;;;;;;;;4981721;28;20513;-89
2023/05/15 01:29:51;;;;;;;17.17;15.55;;;;;;;;;;4996294;28;20435;-90
2023/05/15 01:32:24;;;;;;;19.35;17.35;;;;;;;;;;4996096;28;20399;-90
2023/05/15 01:34:55;;;;;;;19.05;17.13;;;;;;;;;;4996016;28;20511;-91
2023/05/15 01:37:27;;;;;;;18.67;16.73;;;;;;;;;;4994457;28;20455;-90
2023/05/15 01:39:59;;;;;;;18.77;16.77;;;;;;;;;;4985658;28;20413;-91
2023/05/15 01:42:30;;;;;;;18.83;17.02;;;;;;;;;;4984109;28;20491;-90
2023/05/15 01:44:56;;;;;;;18.75;16.80;;;;;;;;;;4986490;28;20450;-91
2023/05/15 01:47:29;;;;;;;18.63;16.70;;;;;;;;;;4986235;28;20435;-91
2023/05/15 01:49:56;;;;;;;19.10;17.17;;;;;;;;;;4988928;28;20427;-90
2023/05/15 01:52:45;;;;;;;19.60;17.70;;;;;;;;;;4968062;28;20452;-90
2023/05/15 01:55:22;;;;;;;20.35;18.30;;;;;;;;;;4988400;28;20418;-90
2023/05/15 01:57:51;;;;;;;19.55;17.73;;;;;;;;;;4986656;28;20419;-90
2023/05/15 02:00:20;;;;;;;19.70;17.67;;;;;;;;;;4983153;28;20432;-91
2023/05/15 02:02:54;;;;;;;20.25;18.15;;;;;;;;;;4986230;28;20415;-91
2023/05/15 02:05:23;;;;;;;20.63;18.52;;;;;;;;;;4986355;28;20413;-90
2023/05/15 02:07:52;;;;;;;20.27;18.25;;;;;;;;;;4987122;28;20420;-91
2023/05/15 02:10:38;;;;;;;19.83;17.83;;;;;;;;;;4981586;28;20403;-91
2023/05/15 02:13:06;;;;;;;20.65;18.45;;;;;;;;;;4991619;28;20424;-91
2023/05/15 02:15:42;;;;;;;21.80;19.02;;;;;;;;;;4985149;28;20431;-91
2023/05/15 02:18:13;;;;;;;21.33;19.15;;;;;;;;;;4984879;28;20461;-90
2023/05/15 02:20:39;;;;;;;20.83;18.80;;;;;;;;;;4984100;28;20408;-90
2023/05/15 02:23:08;;;;;;;22.00;19.52;;;;;;;;;;4986332;28;20467;-90
2023/05/15 02:25:45;;;;;;;20.73;18.73;;;;;;;;;;4987117;28;20415;-90
2023/05/15 02:28:19;;;;;;;21.08;18.98;;;;;;;;;;4988038;28;20486;-90
2023/05/15 02:31:00;;;;;;;21.90;19.65;;;;;;;;;;4988804;28;20423;-91
2023/05/15 02:33:35;;;;;;;21.97;19.87;;;;;;;;;;4989129;28;20408;-91
2023/05/15 02:36:05;;;;;;;21.80;19.55;;;;;;;;;;5006017;28;20411;-90
2023/05/15 02:38:34;;;;;;;22.05;19.80;;;;;;;;;;5006016;28;20412;-90
2023/05/15 02:41:07;;;;;;;22.10;19.98;;;;;;;;;;5008993;28;20405;-90
2023/05/15 02:43:39;;;;;;;21.83;19.52;;;;;;;;;;5001031;28;20522;-91
2023/05/15 02:46:06;;;;;;;21.85;19.50;;;;;;;;;;5005963;28;20441;-90
2023/05/15 02:48:33;;;;;;;21.80;19.42;;;;;;;;;;5006191;28;20412;-91
2023/05/15 02:51:02;;;;;;;20.80;18.73;;;;;;;;;;5012226;28;20398;-92
2023/05/15 02:53:28;;;;;;;22.00;19.70;;;;;;;;;;5006964;28;20410;-91
2023/05/15 02:55:58;;;;;;;21.15;18.90;;;;;;;;;;5011116;28;20524;-90
2023/05/15 02:58:27;;;;;;;21.52;19.42;;;;;;;;;;5013150;28;20572;-90
2023/05/15 03:00:53;;;;;;;22.63;20.23;;;;;;;;;;5009560;28;20410;-89
2023/05/15 03:03:22;;;;;;;21.58;19.48;;;;;;;;;;5011970;28;20416;-90
2023/05/15 03:05:48;;;;;;;22.08;19.83;;;;;;;;;;5009290;28;20405;-91
2023/05/15 03:08:20;;;;;;;21.50;19.38;;;;;;;;;;5016235;28;20540;-90
2023/05/15 03:10:46;;;;;;;21.13;19.10;;;;;;;;;;5004318;28;20415;-90
2023/05/15 03:13:21;;;;;;;21.65;19.45;;;;;;;;;;5009236;28;20417;-91
2023/05/15 03:15:50;;;;;;;22.10;19.80;;;;;;;;;;5009029;28;20433;-91
2023/05/15 03:18:18;;;;;;;22.00;19.75;;;;;;;;;;5008556;28;20446;-90
2023/05/15 03:20:45;;;;;;;22.58;20.33;;;;;;;;;;5014717;28;20429;-89
2023/05/15 03:23:18;;;;;;;22.77;20.58;;;;;;;;;;5006345;28;20415;-90
2023/05/15 03:25:44;;;;;;;24.00;21.70;;;;;;;;;;4993733;28;20438;-90
2023/05/15 03:28:20;;;;;;;;;;;;;;;;;;;;;
2023/05/15 03:31:14;;;;;;;;;;;;;;;;;;;;;
2023/05/15 03:33:45;;;;;;;27.10;24.23;;;;;;;;;;5034334;28;20445;-91
2023/05/15 03:36:14;;;;;;;27.70;24.80;;;;;;;;;;5007292;28;20420;-91
2023/05/15 03:38:40;;;;;;;30.55;25.55;;;;;;;;;;4995599;28;20509;-89
2023/05/15 03:41:14;;;;;;;29.08;26.10;;;;;;;;;;5007273;28;20406;-90
2023/05/15 03:43:40;;;;;;;30.60;27.42;;;;;;;;;;4999510;28;20438;-89
2023/05/15 03:46:12;;;;;;;33.45;27.08;;;;;;;;;;5006261;28;20512;-89
2023/05/15 03:48:40;;;;;;;32.77;28.27;;;;;;;;;;5012422;28;20514;-90
2023/05/15 03:51:09;;;;;;;32.35;28.38;;;;;;;;;;5000496;28;20422;-90
2023/05/15 03:53:38;;;;;;;32.75;29.25;;;;;;;;;;4997559;28;20526;-90
2023/05/15 03:56:09;;;;;;;34.78;30.30;;;;;;;;;;4997823;28;20490;-90
2023/05/15 03:58:35;;;;;;;33.92;30.25;;;;;;;;;;4998054;28;20506;-91
2023/05/15 04:01:01;;;;;;;34.40;30.70;;;;;;;;;;4997175;28;20445;-90
2023/05/15 04:03:33;;;;;;;38.42;31.33;;;;;;;;;;4998083;28;20417;-90
2023/05/15 04:05:59;;;;;;;35.08;31.30;;;;;;;;;;4997406;28;20407;-91
2023/05/15 04:08:33;;;;;;;34.00;30.40;;;;;;;;;;4997152;28;20502;-91
2023/05/15 04:11:06;;;;;;;34.42;30.80;;;;;;;;;;4981236;28;20458;-91
2023/05/15 04:13:32;;;;;;;34.10;30.52;;;;;;;;;;5003043;28;20566;-90
2023/05/15 04:16:07;;;;;;;33.53;30.05;;;;;;;;;;5017326;28;20401;-91
2023/05/15 04:18:41;;;;;;;33.90;29.77;;;;;;;;;;5016731;28;20404;-91
2023/05/15 04:24:16;;;;;;;33.13;29.70;;;;;;;;;;5018494;28;20417;-91
2023/05/15 04:26:45;;;;;;;34.47;30.83;;;;;;;;;;5016489;28;20469;-88
2023/05/15 04:29:14;;;;;;;32.53;29.08;;;;;;;;;;4998566;28;20461;-89
2023/05/15 04:31:40;;;;;;;32.83;29.42;;;;;;;;;;5016296;28;20460;-89
2023/05/15 04:34:06;;;;;;;31.88;28.20;;;;;;;;;;5016932;28;20449;-89
2023/05/15 04:36:34;;;;;;;25.52;22.90;;;;;;;;;;5016815;28;20480;-88
2023/05/15 04:39:03;;;;;;;30.33;27.40;;;;;;;;;;5016551;28;20413;-89
2023/05/15 04:41:29;;;;;;;30.33;27.33;;;;;;;;;;5015884;28;20441;-89
2023/05/15 04:43:59;;;;;;;31.40;28.20;;;;;;;;;;4996616;28;20435;-89
2023/05/15 04:46:25;;;;;;;28.48;25.58;;;;;;;;;;4997233;28;20427;-90
2023/05/15 04:48:52;;;;;;;29.63;26.67;;;;;;;;;;5021892;28;20415;-89
2023/05/15 04:51:20;;;;;;;29.42;26.42;;;;;;;;;;4996506;28;20450;-88
2023/05/15 04:53:49;;;;;;;28.92;26.05;;;;;;;;;;4996338;28;20435;-91
2023/05/15 04:56:18;;;;;;;28.50;25.70;;;;;;;;;;4997664;28;20411;-90
2023/05/15 04:58:44;;;;;;;29.45;26.55;;;;;;;;;;4999847;28;20449;-88
2023/05/15 05:01:21;;;;;;;29.40;26.52;;;;;;;;;;4999232;28;20421;-90
2023/05/15 05:03:47;;;;;;;29.90;26.93;;;;;;;;;;4999286;28;20501;-88
2023/05/15 05:06:16;;;;;;;27.77;24.80;;;;;;;;;;5016691;28;20192;-87
2023/05/15 05:08:42;;;;;;;29.47;24.93;;;;;;;;;;5018045;28;20334;-88
2023/05/15 05:11:08;;;;;;;31.88;28.65;;;;;;;;;;5015704;28;20410;-88
2023/05/15 05:13:36;;;;;;;32.17;28.83;;;;;;;;;;5015450;28;20489;-89
2023/05/15 05:16:16;;;;;;;32.03;28.73;;;;;;;;;;4999925;28;20405;-89
2023/05/15 05:18:47;;;;;;;28.13;25.23;;;;;;;;;;5016271;28;20208;-90
2023/05/15 05:21:25;;;;;;;30.37;25.90;;;;;;;;;;5031578;28;20180;-92
2023/05/15 05:24:16;;;;;;;30.47;25.97;;;;;;;;;;5001262;28;20189;-91
2023/05/15 05:26:48;;;;;;;29.57;24.83;;;;;;;;;;4990221;28;20180;-92
2023/05/15 05:29:38;;;;;;;29.23;24.80;;;;;;;;;;5016667;28;20259;-91
2023/05/15 05:32:12;;;;;;;32.40;25.60;;;;;;;;;;5015733;28;20184;-91
2023/05/15 05:38:08;;;;;;;30.50;26.98;;;;;;;;;;5014390;28;20466;-91
2023/05/15 05:40:36;;;;;;;28.60;25.47;;;;;;;;;;4996772;28;20189;-91
2023/05/15 05:43:06;;;;;;;31.03;24.77;;;;;;;;;;4996765;28;20185;-92
2023/05/15 05:48:52;;;;;;;29.53;24.43;;;;;;;;;;5014309;28;20189;-93
2023/05/15 05:51:37;;;;;;;;;;;;;;;;;;;;;
2023/05/15 05:54:40;;;;;;;29.05;25.42;;;;;;;;;;4993890;28;20429;-91
2023/05/15 05:57:29;;;;;;;28.95;25.73;;;;;;;;;;4988818;28;20413;-92
2023/05/15 06:00:01;;;;;;;28.58;25.55;;;;;;;;;;4976254;28;20412;-91
2023/05/15 06:05:31;;;;;;;26.90;24.15;;;;;;;;;;4983076;28;20416;-91
2023/05/15 06:08:01;;;;;;;26.48;23.77;;;;;;;;;;4976177;28;20409;-92
2023/05/15 06:10:45;;;;;;;;;;;;;;;;;;;;;
2023/05/15 06:13:23;;;;;;;25.00;22.47;;;;;;;;;;4993587;28;20423;-92
2023/05/15 06:16:12;;;;;;;25.40;22.90;;;;;;;;;;4991028;28;20452;-91
2023/05/15 06:18:38;;;;;;;24.80;22.27;;;;;;;;;;4993077;28;20415;-91
2023/05/15 06:21:11;;;;;;;25.23;22.67;;;;;;;;;;4992254;28;20409;-92
2023/05/15 06:23:42;;;;;;;24.95;22.48;;;;;;;;;;4993375;28;20415;-91
2023/05/15 06:26:26;;;;;;;23.80;21.30;;;;;;;;;;4996157;28;20449;-91
2023/05/15 06:32:27;;;;;;;;;;;;;;;;;;;;;
2023/05/15 06:35:35;;;;;;;20.27;17.43;;;;;;;;;;4998122;28;20212;-92
2023/05/15 06:38:00;;;;;;;20.45;18.35;;;;;;;;;;4994701;28;20527;-89
2023/05/15 06:40:29;;;;;;;18.77;16.40;;;;;;;;;;4981169;28;20182;-88
2023/05/15 06:43:27;;;;;;;18.07;16.27;;;;;;;;;;4980714;28;20217;-91
2023/05/15 06:51:59;;;;;;;;;;;;;;;;;;;;;
2023/05/15 06:54:25;;;;;;;17.37;15.20;;;;;;;;;;5005452;28;20197;-91
2023/05/15 06:57:15;;;;;;;17.27;15.43;;;;;;;;;;4999381;28;20212;-92
2023/05/15 06:59:42;;;;;;;18.45;16.60;;;;;;;;;;4995558;28;20434;-91
2023/05/15 07:02:14;;;;;;;18.60;15.83;;;;;;;;;;5015675;28;20173;-91
2023/05/15 07:04:50;;;;;;;17.27;15.47;;;;;;;;;;5015865;28;20181;-91
2023/05/15 07:07:24;;;;;;;17.00;15.37;;;;;;;;;;5014778;28;20173;-92
2023/05/15 07:09:55;;;;;;;17.00;15.10;;;;;;;;;;4971436;28;20274;-91
2023/05/15 07:12:37;;;;;;;17.13;15.45;;;;;;;;;;4975805;28;20419;-91
2023/05/15 07:15:09;;;;;;;18.97;16.03;;;;;;;;;;5011054;28;20215;-91
2023/05/15 07:17:35;;;;;;;19.60;17.58;;;;;;;;;;4987656;28;20405;-90
2023/05/15 07:20:02;;;;;;;19.03;16.77;;;;;;;;;;4990977;28;20209;-91
2023/05/15 07:22:32;;;;;;;18.73;16.70;;;;;;;;;;4990625;28;20209;-91
2023/05/15 07:24:58;;;;;;;19.45;16.60;;;;;;;;;;4982484;28;20415;-90
2023/05/15 07:27:31;;;;;;;18.15;16.35;;;;;;;;;;4994956;28;20464;-90
2023/05/15 07:29:57;;;;;;;18.98;16.98;;;;;;;;;;4994330;28;20484;-89
2023/05/15 07:32:25;;;;;;;16.52;14.73;;;;;;;;;;4995483;28;20074;-89
2023/05/15 07:34:52;;;;;;;19.20;17.20;;;;;;;;;;4993428;28;20525;-89
2023/05/15 07:37:22;;;;;;;26.83;24.30;;;;;;;;;;4997235;28;20449;-89
2023/05/15 07:39:48;;;;;;;19.50;17.50;;;;;;;;;;5013760;28;20430;-88
2023/05/15 07:42:14;;;;;;;19.25;17.15;;;;;;;;;;5013932;28;20411;-88
2023/05/15 07:44:40;;;;;;;20.13;18.13;;;;;;;;;;5014826;28;20423;-89
2023/05/15 07:47:14;;;;;;;18.83;17.08;;;;;;;;;;4997430;28;20494;-89
2023/05/15 07:49:40;;;;;;;17.35;15.70;;;;;;;;;;4997789;28;20451;-89
2023/05/15 07:52:09;;;;;;;17.35;15.57;;;;;;;;;;4997512;28;20415;-89
2023/05/15 07:54:35;;;;;;;16.95;15.27;;;;;;;;;;4997246;28;20421;-89
2023/05/15 07:57:01;;;;;;;16.38;14.40;;;;;;;;;;4997352;28;20443;-89
2023/05/15 07:59:27;;;;;;;15.93;14.32;;;;;;;;;;4988336;28;20421;-89
2023/05/15 08:01:55;;;;;;;16.20;14.57;;;;;;;;;;5033357;28;20406;-90
2023/05/15 08:04:21;;;;;;;16.42;14.82;;;;;;;;;;5033095;28;20431;-89
2023/05/15 08:06:47;;;;;;;16.65;14.98;;;;;;;;;;5032991;28;20405;-88
2023/05/15 08:09:19;;;;;;;17.30;15.70;;;;;;;;;;5030480;28;20428;-89
2023/05/15 08:11:45;;;;;;;17.60;15.80;;;;;;;;;;5009121;28;20537;-89
2023/05/15 08:14:11;;;;;;;17.57;15.63;;;;;;;;;;5023389;28;20448;-91
2023/05/15 08:16:42;;;;;;;15.63;14.02;;;;;;;;;;5033055;28;20496;-91
2023/05/15 08:22:14;;;;;;;14.75;13.18;;;;;;;;;;5025925;28;20418;-90
2023/05/15 08:24:40;;;;;;;13.80;12.43;;;;;;;;;;5016047;28;20446;-89
2023/05/15 08:27:07;;;;;;;13.43;12.02;;;;;;;;;;5015187;28;20421;-90
2023/05/15 08:29:43;;;;;;;12.88;11.13;;;;;;;;;;4999978;28;20416;-90
2023/05/15 08:32:12;;;;;;;12.82;11.63;;;;;;;;;;5016278;28;20421;-88
2023/05/15 08:34:41;;;;;;;14.77;13.38;;;;;;;;;;5016726;28;20436;-89
2023/05/15 08:37:10;;;;;;;18.60;16.75;;;;;;;;;;5015956;28;20425;-88
2023/05/15 08:39:36;;;;;;;16.13;14.53;;;;;;;;;;5017034;28;20199;-88
2023/05/15 08:42:05;;;;;;;14.68;13.18;;;;;;;;;;5016235;28;20473;-88
2023/05/15 08:44:34;;;;;;;15.60;14.00;;;;;;;;;;5015950;28;20429;-89
2023/05/15 08:47:00;;;;;;;15.30;13.73;;;;;;;;;;5013815;28;20461;-88
2023/05/15 08:49:41;;;;;;;14.43;12.93;;;;;;;;;;5016832;28;20422;-88
2023/05/15 08:52:07;;;;;;;14.98;13.48;;;;;;;;;;5016069;28;20471;-88
2023/05/15 08:54:34;;;;;;;14.07;12.00;;;;;;;;;;5016665;28;20309;-88
2023/05/15 08:57:00;;;;;;;13.70;12.30;;;;;;;;;;5016263;28;20425;-88
2023/05/15 08:59:29;;;;;;;14.10;12.73;;;;;;;;;;5016667;28;20177;-88
2023/05/15 09:01:56;;;;;;;13.00;10.20;;;;;;;;;;5016599;28;20172;-88
2023/05/15 09:04:22;;;;;;;12.87;11.60;;;;;;;;;;5015961;28;20417;-88
2023/05/15 09:06:49;;;;;;;12.63;11.32;;;;;;;;;;5015441;28;20408;-89
2023/05/15 09:09:17;;;;;;;11.05;10.02;;;;;;;;;;5015903;28;20428;-87
2023/05/15 09:11:44;;;;;;;9.50;8.50;;;;;;;;;;5016531;28;20177;-88
2023/05/15 09:14:13;;;;;;;11.10;9.60;;;;;;;;;;5016568;28;20204;-88
2023/05/15 09:16:40;;;;;;;11.07;8.90;;;;;;;;;;5012824;28;20212;-88
2023/05/15 09:19:06;;;;;;;10.00;8.90;;;;;;;;;;4996781;28;20178;-88
2023/05/15 09:21:35;;;;;;;10.77;8.90;;;;;;;;;;4995703;28;20442;-88
2023/05/15 09:24:23;;;;;;;9.57;8.45;;;;;;;;;;4980150;28;20419;-89
2023/05/15 09:27:08;;;;;;;11.02;9.43;;;;;;;;;;4995756;28;20466;-89
2023/05/15 09:29:36;;;;;;;11.07;9.73;;;;;;;;;;4996308;28;20443;-89
2023/05/15 09:32:12;;;;;;;9.50;8.68;;;;;;;;;;4996600;28;20181;-89
2023/05/15 09:34:42;;;;;;;13.97;12.57;;;;;;;;;;5001335;28;20291;-90
2023/05/15 09:37:10;;;;;;;14.27;12.98;;;;;;;;;;4996045;28;20415;-90
2023/05/15 09:39:45;;;;;;;13.43;12.02;;;;;;;;;;4996371;28;20502;-87
2023/05/15 09:42:12;;;;;;;14.85;13.50;;;;;;;;;;4995587;28;20416;-89
2023/05/15 09:44:44;;;;;;;12.32;11.30;;;;;;;;;;4995751;28;20403;-88
2023/05/15 09:47:16;;;;;;;9.75;8.75;;;;;;;;;;4995550;28;20446;-88
2023/05/15 09:49:46;;;;;;;9.10;8.20;;;;;;;;;;4980403;28;20411;-91
2023/05/15 09:52:15;;;;;;;9.65;8.10;;;;;;;;;;5012046;28;20422;-90
2023/05/15 09:54:45;;;;;;;9.48;8.57;;;;;;;;;;5006888;28;20205;-89
2023/05/15 09:57:14;;;;;;;9.07;7.85;;;;;;;;;;4996487;28;20264;-89
2023/05/15 09:59:51;;;;;;;11.13;6.85;;;;;;;;;;5000346;28;20227;-89
2023/05/15 10:02:23;;;;;;;8.20;7.38;;;;;;;;;;5000162;28;20173;-89
2023/05/15 10:04:59;;;;;;;8.77;7.03;;;;;;;;;;4999826;28;20430;-90
2023/05/15 10:07:29;;;;;;;7.47;6.78;;;;;;;;;;4999253;28;20411;-89
2023/05/15 10:09:58;;;;;;;8.85;8.00;;;;;;;;;;5000160;28;20419;-89
2023/05/15 10:12:25;;;;;;;12.75;11.55;;;;;;;;;;4999502;28;20460;-90
2023/05/15 10:14:51;;;;;;;12.77;11.57;;;;;;;;;;5016579;28;20436;-89
2023/05/15 10:17:20;;;;;;;13.27;11.98;;;;;;;;;;5019165;28;20481;-89
2023/05/15 10:19:50;;;;;;;13.90;12.65;;;;;;;;;;5018878;28;20414;-89
2023/05/15 10:22:19;;;;;;;14.27;12.77;;;;;;;;;;5035417;28;20473;-89
2023/05/15 10:24:46;;;;;;;13.98;12.68;;;;;;;;;;5035183;28;20401;-90
2023/05/15 10:27:20;;;;;;;13.38;12.18;;;;;;;;;;5035615;28;20421;-90
2023/05/15 10:29:46;;;;;;;14.25;12.85;;;;;;;;;;5034443;28;20406;-90
2023/05/15 10:32:16;;;;;;;13.25;11.82;;;;;;;;;;5035725;28;20475;-90
2023/05/15 10:34:43;;;;;;;13.00;11.80;;;;;;;;;;5035141;28;20468;-89
2023/05/15 10:37:09;;;;;;;14.23;11.70;;;;;;;;;;5033671;28;20402;-89
2023/05/15 10:39:40;;;;;;;12.85;11.55;;;;;;;;;;5015481;28;20439;-88
2023/05/15 10:42:07;;;;;;;12.88;11.50;;;;;;;;;;5015999;28;20439;-89
2023/05/15 10:44:33;;;;;;;11.77;10.68;;;;;;;;;;5015944;28;20477;-88
2023/05/15 10:47:03;;;;;;;11.88;10.68;;;;;;;;;;5013004;28;20192;-92
2023/05/15 10:49:29;;;;;;;11.10;9.98;;;;;;;;;;5015954;28;20188;-88
2023/05/15 10:51:55;;;;;;;9.20;8.00;;;;;;;;;;4983071;28;20181;-89
2023/05/15 10:54:23;;;;;;;9.50;8.50;;;;;;;;;;4999303;28;20212;-88
2023/05/15 10:56:49;;;;;;;10.80;9.60;;;;;;;;;;4983154;28;20177;-89
2023/05/15 10:59:15;;;;;;;12.77;11.50;;;;;;;;;;4998204;28;20402;-90
2023/05/15 11:01:44;;;;;;;14.60;13.20;;;;;;;;;;5014032;28;20415;-87
2023/05/15 11:04:20;;;;;;;13.27;12.07;;;;;;;;;;5014141;28;20415;-88
2023/05/15 11:06:47;;;;;;;12.32;11.13;;;;;;;;;;5014693;28;20446;-89
2023/05/15 11:09:23;;;;;;;11.77;10.68;;;;;;;;;;5014868;28;20188;-88
2023/05/15 11:11:54;;;;;;;11.32;10.13;;;;;;;;;;5014849;28;20474;-88
2023/05/15 11:14:21;;;;;;;11.35;10.32;;;;;;;;;;5015272;28;20241;-89
2023/05/15 11:16:53;;;;;;;12.27;10.43;;;;;;;;;;5014937;28;20419;-87
2023/05/15 11:19:23;;;;;;;11.00;10.00;;;;;;;;;;5014391;28;20403;-87
2023/05/15 11:21:59;;;;;;;10.65;9.60;;;;;;;;;;5015123;28;20411;-87
2023/05/15 11:24:32;;;;;;;11.43;10.20;;;;;;;;;;4998222;28;20471;-86
2023/05/15 11:27:04;;;;;;;10.98;9.88;;;;;;;;;;5014682;28;20446;-86
2023/05/15 11:29:30;;;;;;;10.52;9.45;;;;;;;;;;4986937;28;20425;-87
2023/05/15 11:31:57;;;;;;;10.63;9.63;;;;;;;;;;4978387;28;20492;-86
2023/05/15 11:34:32;;;;;;;9.43;8.50;;;;;;;;;;4963177;28;20245;-86
2023/05/15 11:37:01;;;;;;;11.25;10.15;;;;;;;;;;4979050;28;20173;-87
2023/05/15 11:39:28;;;;;;;10.57;9.55;;;;;;;;;;4998715;28;20225;-87
2023/05/15 11:41:54;;;;;;;14.20;12.70;;;;;;;;;;5013220;28;20271;-86
2023/05/15 11:44:24;;;;;;;11.75;10.75;;;;;;;;;;5018182;28;20414;-85
2023/05/15 11:46:50;;;;;;;12.10;11.00;;;;;;;;;;5015500;28;20204;-86
2023/05/15 11:49:19;;;;;;;12.88;11.60;;;;;;;;;;4982269;28;20204;-86
2023/05/15 11:51:47;;;;;;;12.97;11.67;;;;;;;;;;4982647;28;20186;-86
2023/05/15 11:54:14;;;;;;;12.95;11.77;;;;;;;;;;4998339;28;20205;-86
2023/05/15 11:56:43;;;;;;;14.32;13.02;;;;;;;;;;4997629;28;20419;-86
2023/05/15 11:59:12;;;;;;;12.75;11.55;;;;;;;;;;4998357;28;20260;-86
2023/05/15 12:01:42;;;;;;;15.07;13.52;;;;;;;;;;4998185;28;20181;-85
2023/05/15 12:04:15;;;;;;;15.75;14.32;;;;;;;;;;5008086;28;20185;-86
2023/05/15 12:06:43;;;;;;;17.20;15.53;;;;;;;;;;5017682;28;20291;-86
2023/05/15 12:09:17;;;;;;;15.65;14.25;;;;;;;;;;5034194;28;20187;-86
2023/05/15 12:11:53;;;;;;;17.90;16.30;;;;;;;;;;5001531;28;20210;-86
2023/05/15 12:14:27;;;;;;;19.57;17.57;;;;;;;;;;5033764;28;20287;-86
2023/05/15 12:16:56;;;;;;;21.37;19.17;;;;;;;;;;5034106;28;20176;-86
2023/05/15 12:19:27;;;;;;;23.43;21.13;;;;;;;;;;5001730;28;20183;-86
2023/05/15 12:21:53;;;;;;;22.03;19.53;;;;;;;;;;5033749;28;20184;-88
2023/05/15 12:24:20;;;;;;;23.27;20.93;;;;;;;;;;5001182;28;20188;-87
2023/05/15 12:26:46;;;;;;;22.70;20.40;;;;;;;;;;5033686;28;20184;-87
2023/05/15 12:29:13;;;;;;;23.20;20.90;;;;;;;;;;5033789;28;20189;-88
2023/05/15 12:31:39;;;;;;;21.87;19.57;;;;;;;;;;5001114;28;20243;-88
2023/05/15 12:34:05;;;;;;;22.60;20.30;;;;;;;;;;5031507;28;20208;-88
2023/05/15 12:36:33;;;;;;;23.30;21.00;;;;;;;;;;5033678;28;20406;-89
2023/05/15 12:39:07;;;;;;;25.13;22.67;;;;;;;;;;5016526;28;20429;-90
2023/05/15 12:41:37;;;;;;;23.80;21.40;;;;;;;;;;5033788;28;20260;-89
2023/05/15 12:44:06;;;;;;;24.00;21.07;;;;;;;;;;5033487;28;20227;-90
2023/05/15 12:46:32;;;;;;;24.27;21.77;;;;;;;;;;5032440;28;20176;-90
2023/05/15 12:48:58;;;;;;;25.33;21.87;;;;;;;;;;5033476;28;20176;-90
2023/05/15 12:51:28;;;;;;;24.55;22.15;;;;;;;;;;5028535;28;20430;-90
2023/05/15 12:53:56;;;;;;;23.93;21.53;;;;;;;;;;4999717;28;20196;-89
2023/05/15 12:56:23;;;;;;;25.58;23.08;;;;;;;;;;5032899;28;20412;-90
2023/05/15 12:58:55;;;;;;;25.48;22.98;;;;;;;;;;5033975;28;20406;-90
2023/05/15 13:01:21;;;;;;;25.87;23.17;;;;;;;;;;4999945;28;20406;-90
2023/05/15 13:03:50;;;;;;;24.27;21.77;;;;;;;;;;5033043;28;20441;-90
2023/05/15 13:06:16;;;;;;;21.57;19.43;;;;;;;;;;5033043;28;20283;-89
2023/05/15 13:08:42;;;;;;;21.93;19.63;;;;;;;;;;5033008;28;20207;-89
2023/05/15 13:11:13;;;;;;;24.37;21.97;;;;;;;;;;5032876;28;20497;-90
2023/05/15 13:13:48;;;;;;;25.33;22.63;;;;;;;;;;5032576;28;20410;-89
2023/05/15 13:16:23;;;;;;;24.83;22.33;;;;;;;;;;5033049;28;20184;-89
2023/05/15 13:18:49;;;;;;;22.57;20.27;;;;;;;;;;5033040;28;20283;-89
2023/05/15 13:21:16;;;;;;;23.93;21.43;;;;;;;;;;5032883;28;20415;-88
2023/05/15 13:23:44;;;;;;;25.65;22.85;;;;;;;;;;5032976;28;20466;-90
2023/05/15 13:26:10;;;;;;;24.20;21.80;;;;;;;;;;4999571;28;20409;-90
2023/05/15 13:28:36;;;;;;;25.60;21.80;;;;;;;;;;5030689;28;20239;-91
2023/05/15 13:31:02;;;;;;;26.37;22.63;;;;;;;;;;5032316;28;20180;-90
2023/05/15 13:33:31;;;;;;;26.17;23.47;;;;;;;;;;5004231;28;20208;-90
2023/05/15 13:35:57;;;;;;;27.53;24.37;;;;;;;;;;5004803;28;20208;-90
2023/05/15 13:38:23;;;;;;;28.67;25.88;;;;;;;;;;5008560;28;20508;-89
2023/05/15 13:40:52;;;;;;;29.70;26.63;;;;;;;;;;5004445;28;20175;-88
2023/05/15 13:43:18;;;;;;;30.23;26.77;;;;;;;;;;5006643;28;20248;-91
2023/05/15 13:45:44;;;;;;;29.70;26.07;;;;;;;;;;5003974;28;20201;-88
2023/05/15 13:48:13;;;;;;;28.87;25.87;;;;;;;;;;4997194;28;20173;-89
2023/05/15 13:50:39;;;;;;;29.30;26.17;;;;;;;;;;4980504;28;20185;-88
2023/05/15 13:53:05;;;;;;;30.30;26.90;;;;;;;;;;4996469;28;20173;-88
2023/05/15 13:55:31;;;;;;;29.17;26.07;;;;;;;;;;4980157;28;20209;-89
2023/05/15 13:58:00;;;;;;;28.67;25.47;;;;;;;;;;4995444;28;20185;-89
2023/05/15 14:00:26;;;;;;;26.90;23.60;;;;;;;;;;4994361;28;20174;-88
2023/05/15 14:02:52;;;;;;;26.63;23.97;;;;;;;;;;5001651;28;20482;-89
2023/05/15 14:05:21;;;;;;;28.63;25.63;;;;;;;;;;5010611;28;20422;-89
2023/05/15 14:07:47;;;;;;;23.07;20.63;;;;;;;;;;5011057;28;20173;-91
2023/05/15 14:10:15;;;;;;;24.83;22.20;;;;;;;;;;5011234;28;20186;-89
2023/05/15 14:12:45;;;;;;;23.93;21.47;;;;;;;;;;5011470;28;20205;-89
2023/05/15 14:15:11;;;;;;;23.60;21.27;;;;;;;;;;4996496;28;20217;-90
2023/05/15 14:17:37;;;;;;;23.43;20.93;;;;;;;;;;5012837;28;20173;-89
2023/05/15 14:20:06;;;;;;;22.83;20.53;;;;;;;;;;5012711;28;20174;-90
2023/05/15 14:22:32;;;;;;;23.00;20.60;;;;;;;;;;5012785;28;20260;-89
2023/05/15 14:24:58;;;;;;;24.70;22.13;;;;;;;;;;5012410;28;20418;-89
2023/05/15 14:27:27;;;;;;;23.47;20.83;;;;;;;;;;5012376;28;20180;-91
2023/05/15 14:29:55;;;;;;;22.20;19.67;;;;;;;;;;5012428;28;20184;-90
2023/05/15 14:32:21;;;;;;;21.27;19.00;;;;;;;;;;5012455;28;20186;-91
2023/05/15 14:34:50;;;;;;;21.40;19.37;;;;;;;;;;5012407;28;20208;-91
2023/05/15 14:37:18;;;;;;;23.63;21.30;;;;;;;;;;5012368;28;20174;-90
2023/05/15 14:39:44;;;;;;;24.00;21.07;;;;;;;;;;5012643;28;20185;-90
2023/05/15 14:42:13;;;;;;;24.97;22.07;;;;;;;;;;5012086;28;20180;-90
2023/05/15 14:44:39;;;;;;;24.13;21.83;;;;;;;;;;5013858;28;20196;-91
2023/05/15 14:47:06;;;;;;;23.30;20.90;;;;;;;;;;5016182;28;20178;-89
2023/05/15 14:49:35;;;;;;;18.33;16.40;;;;;;;;;;5015894;28;20198;-89
2023/05/15 14:52:01;;;;;;;14.77;13.27;;;;;;;;;;5015945;28;20182;-90
2023/05/15 14:54:27;;;;;;;14.55;13.13;;;;;;;;;;5015081;28;20437;-90
2023/05/15 14:56:56;;;;;;;13.70;12.25;;;;;;;;;;5015612;28;20256;-89
2023/05/15 14:59:22;;;;;;;14.17;12.67;;;;;;;;;;4999514;28;20182;-91
2023/05/15 15:01:48;;;;;;;14.40;12.90;;;;;;;;;;5015391;28;20454;-91
2023/05/15 15:04:17;;;;;;;15.18;12.38;;;;;;;;;;5015433;28;20415;-90
2023/05/15 15:06:43;;;;;;;12.90;11.60;;;;;;;;;;5015621;28;20193;-89